^^
Datos históricos de la estación: Murcia-Puente Tocinos
 
Diario Informe para Enero 18, 2022 Unidades:  Métrico    Ingés   Ambas
Diario Semanal Mensual Anual
  Actual: Máxima: Mínima: Promedio:
Temperatura: 7.8 °C 7.8 °C 2.5 °C 4.2 °C
Punto de rocio: 1 °C 3 °C -0.5 °C 0.8 °C
Humedad: 62.2% 82% 62.2% 78%
Velocidad viento: 5.8km/h 10km/h 3.9km/h 6.3km/h
Racha viento: 10km/h 14.8km/h - -
VientoSSO - - Sur
Presión: 1031.9 hPa 1032.1 hPa 1030.2 hPa -
Precipitación: 0.0 mm      
 
 
Tabla de datos para Enero 18, 2022
Hora Temperatura Punto de rocio Presión Viento Velocidad viento Racha viento Humedad Intensidad lluvia(por hora) Nubes
00:04 6.4 °C 3 °C 1031.1 hPa Sur 6.4 km/h 9.3 km/h 79% 0.0 mm
00:09 6.4 °C 3 °C 1031.4 hPa Sur 6.4 km/h 9.5 km/h 79% 0.0 mm
00:14 6.4 °C 3 °C 1031.4 hPa SSO 6.4 km/h 11.1 km/h 79% 0.0 mm
00:19 6.4 °C 3 °C 1031.4 hPa Sur 6.5 km/h 11.1 km/h 78.9% 0.0 mm
00:24 6.4 °C 3 °C 1031.5 hPa Sur 6.9 km/h 9.3 km/h 79% 0.0 mm
00:29 6.4 °C 3 °C 1031.5 hPa Sur 6.7 km/h 7.6 km/h 79% 0.0 mm
00:34 6.4 °C 3 °C 1031.5 hPa Sur 5.8 km/h 8.4 km/h 79% 0.0 mm
00:39 6.3 °C 3 °C 1031.5 hPa Sur 5.8 km/h 7.6 km/h 79% 0.0 mm
00:44 6.3 °C 2.9 °C 1031.4 hPa Sur 5.8 km/h 8.4 km/h 79% 0.0 mm
00:49 6.3 °C 2.9 °C 1031.4 hPa SSO 5.7 km/h 9.3 km/h 79% 0.0 mm
00:54 6.2 °C 3 °C 1031.4 hPa SSO 5 km/h 8.4 km/h 79.9% 0.0 mm
00:59 6.2 °C 3 °C 1031.3 hPa Sur 4.9 km/h 7.4 km/h 80% 0.0 mm
01:04 6.2 °C 3 °C 1031.3 hPa Sur 4.7 km/h 8.4 km/h 80% 0.0 mm
01:09 6.1 °C 2.9 °C 1031.3 hPa SSO 4.7 km/h 8.7 km/h 80% 0.0 mm
01:14 6.1 °C 2.9 °C 1031.2 hPa SSO 4.7 km/h 9.3 km/h 80% 0.0 mm
01:19 6.1 °C 2.9 °C 1031.2 hPa SSO 4.7 km/h 7.4 km/h 80% 0.0 mm
01:24 6 °C 2.8 °C 1031.2 hPa Sur 5 km/h 7.6 km/h 80% 0.0 mm
01:29 5.9 °C 2.7 °C 1031.2 hPa SSE 4.9 km/h 7.4 km/h 80% 0.0 mm
01:34 5.9 °C 2.7 °C 1031.2 hPa SSE 4.7 km/h 7.4 km/h 80% 0.0 mm
01:39 5.8 °C 2.6 °C 1031.2 hPa SSE 4.5 km/h 5.8 km/h 80% 0.0 mm
01:44 5.7 °C 2.5 °C 1031.1 hPa SSE 3.9 km/h 8.7 km/h 80% 0.0 mm
01:49 5.5 °C 2.4 °C 1031.1 hPa Sur 4 km/h 9.3 km/h 80% 0.0 mm
01:54 5.4 °C 2.2 °C 1031.1 hPa Sur 5 km/h 8.4 km/h 80% 0.0 mm
01:59 5.3 °C 2.1 °C 1031.0 hPa Sur 5.1 km/h 8.4 km/h 80% 0.0 mm
02:04 5.3 °C 2.1 °C 1031.0 hPa Sur 5.8 km/h 8.4 km/h 80% 0.0 mm
02:09 5.2 °C 2.1 °C 1031.0 hPa SSE 5.7 km/h 8.4 km/h 80% 0.0 mm
02:14 5.1 °C 2 °C 1031.0 hPa Sur 5 km/h 8.4 km/h 80% 0.0 mm
02:19 5 °C 1.9 °C 1031.0 hPa Sur 5.1 km/h 7.6 km/h 80% 0.0 mm
02:24 4.9 °C 1.7 °C 1031.0 hPa Sur 5.8 km/h 8.4 km/h 80% 0.0 mm
02:29 4.9 °C 1.7 °C 1031.0 hPa Sur 5.8 km/h 7.6 km/h 80% 0.0 mm
02:34 4.9 °C 1.7 °C 1031.0 hPa SE 5.8 km/h 7.4 km/h 80% 0.0 mm
02:39 4.8 °C 1.5 °C 1031.1 hPa SE 5.7 km/h 7.6 km/h 79.1% 0.0 mm
02:44 4.6 °C 1.4 °C 1031.1 hPa Sur 5 km/h 7.6 km/h 79.9% 0.0 mm
02:49 4.4 °C 1.4 °C 1031.1 hPa Sur 5.1 km/h 9.3 km/h 80.6% 0.0 mm
02:54 4.4 °C 1.4 °C 1031.1 hPa Sur 5.8 km/h 8.4 km/h 81% 0.0 mm
02:59 4.4 °C 1.4 °C 1030.9 hPa SSE 5.9 km/h 11.1 km/h 81% 0.0 mm
03:04 4.4 °C 1.4 °C 1030.9 hPa SSE 6.4 km/h 9.3 km/h 81% 0.0 mm
03:09 4.3 °C 1.4 °C 1031.0 hPa SSE 6.3 km/h 9.3 km/h 81% 0.0 mm
03:14 4.3 °C 1.3 °C 1031.0 hPa Sur 5.8 km/h 9.5 km/h 80.9% 0.0 mm
03:19 4.3 °C 1.3 °C 1031.0 hPa SSE 5.9 km/h 9.3 km/h 81% 0.0 mm
03:24 4.2 °C 1.1 °C 1031.0 hPa SSE 6.4 km/h 9.5 km/h 80.4% 0.0 mm
03:29 4.2 °C 1.2 °C 1030.9 hPa Sur 6.5 km/h 11.1 km/h 80.9% 0.0 mm
03:34 4.2 °C 1.2 °C 1030.9 hPa Sur 6.9 km/h 11.1 km/h 80.7% 0.0 mm
03:39 4.2 °C 1.1 °C 1030.9 hPa Sur 6.9 km/h 11.1 km/h 80% 0.0 mm
03:44 4.2 °C 1 °C 1030.8 hPa Sur 6.9 km/h 11.9 km/h 79.6% 0.0 mm
03:49 4.2 °C 0.8 °C 1030.8 hPa Sur 7.1 km/h 13 km/h 79% 0.0 mm
03:54 4.1 °C 0.8 °C 1030.8 hPa Sur 8.4 km/h 14 km/h 79% 0.0 mm
03:59 4 °C 0.7 °C 1030.7 hPa Sur 8.7 km/h 14.8 km/h 79% 0.0 mm
04:04 3.9 °C 0.6 °C 1030.7 hPa Sur 10 km/h 13 km/h 79% 0.0 mm
04:09 3.8 °C 0.6 °C 1030.7 hPa SSE 9.8 km/h 13 km/h 79.7% 0.0 mm
04:14 3.7 °C 0.5 °C 1030.6 hPa Sur 8.7 km/h 11.9 km/h 80% 0.0 mm
04:19 3.6 °C 0.4 °C 1030.6 hPa Sur 8.7 km/h 13 km/h 80% 0.0 mm
04:24 3.5 °C 0.5 °C 1030.6 hPa Sur 8.7 km/h 13 km/h 80.5% 0.0 mm
04:29 3.5 °C 0.6 °C 1030.5 hPa Sur 8.7 km/h 13.7 km/h 81% 0.0 mm
04:34 3.5 °C 0.4 °C 1030.5 hPa Sur 8.7 km/h 13 km/h 80.3% 0.0 mm
04:39 3.5 °C 0.4 °C 1030.5 hPa Sur 8.7 km/h 13 km/h 80% 0.0 mm
04:44 3.6 °C 0.4 °C 1030.3 hPa Sur 8.7 km/h 11.9 km/h 80% 0.0 mm
04:49 3.6 °C 0.4 °C 1030.3 hPa SSO 8.6 km/h 13 km/h 80% 0.0 mm
04:54 3.7 °C 0.5 °C 1030.3 hPa Sur 8.4 km/h 11.9 km/h 79.8% 0.0 mm
04:59 3.7 °C 0.4 °C 1030.2 hPa SSE 8 km/h 9.5 km/h 79% 0.0 mm
05:04 3.7 °C 0.4 °C 1030.2 hPa Sur 6.4 km/h 10.3 km/h 79% 0.0 mm
05:09 3.7 °C 0.4 °C 1030.2 hPa Sur 6.5 km/h 11.1 km/h 79% 0.0 mm
05:14 3.7 °C 0.4 °C 1030.2 hPa Sur 6.9 km/h 9.5 km/h 79% 0.0 mm
05:19 3.7 °C 0.2 °C 1030.2 hPa SSO 6.9 km/h 9.5 km/h 78% 0.0 mm
05:24 3.7 °C 0.3 °C 1030.3 hPa Sur 6.9 km/h 9.3 km/h 78% 0.0 mm
05:29 3.8 °C 0.3 °C 1030.3 hPa Sur 6.7 km/h 8.4 km/h 78% 0.0 mm
05:34 3.7 °C 0.2 °C 1030.3 hPa SSE 5.8 km/h 7.4 km/h 78% 0.0 mm
05:39 3.7 °C 0.2 °C 1030.3 hPa SSE 5.7 km/h 7.6 km/h 78% 0.0 mm
05:44 3.5 °C 0 °C 1030.2 hPa SSE 5 km/h 10 km/h 78% 0.0 mm
05:49 3.3 °C 0 °C 1030.2 hPa Sur 5.2 km/h 11.1 km/h 78.8% 0.0 mm
05:54 3.2 °C -0.1 °C 1030.2 hPa Sur 6.4 km/h 11.1 km/h 79.3% 0.0 mm
05:59 3.1 °C 0 °C 1030.2 hPa SSE 6.7 km/h 10 km/h 80% 0.0 mm
06:04 3 °C -0.1 °C 1030.2 hPa SSE 7.6 km/h 10 km/h 80% 0.0 mm
06:09 3 °C -0.1 °C 1030.3 hPa Sur 7.5 km/h 9.3 km/h 80.2% 0.0 mm
06:14 2.9 °C 0 °C 1030.3 hPa SSE 6.9 km/h 9.3 km/h 81% 0.0 mm
06:19 2.9 °C -0.1 °C 1030.3 hPa SSE 6.8 km/h 9.3 km/h 81% 0.0 mm
06:24 2.9 °C -0.1 °C 1030.4 hPa Sur 5.8 km/h 7.4 km/h 81% 0.0 mm
06:29 2.8 °C -0.1 °C 1030.4 hPa Sur 5.7 km/h 8.4 km/h 81% 0.0 mm
06:34 2.8 °C 0.1 °C 1030.4 hPa SSE 5 km/h 7.6 km/h 81.9% 0.0 mm
06:39 2.8 °C 0.1 °C 1030.5 hPa Sur 5.1 km/h 8.4 km/h 82% 0.0 mm
06:44 2.8 °C 0.1 °C 1030.5 hPa SSE 5.8 km/h 8.4 km/h 82% 0.0 mm
06:49 2.8 °C -0.1 °C 1030.5 hPa SSE 5.8 km/h 8.4 km/h 81.3% 0.0 mm
06:54 2.8 °C -0.1 °C 1030.6 hPa SSE 5.8 km/h 7.4 km/h 81% 0.0 mm
06:59 2.8 °C -0.1 °C 1030.6 hPa SE 5.6 km/h 8.4 km/h 81% 0.0 mm
07:04 2.7 °C -0.2 °C 1030.6 hPa SSE 4.7 km/h 9.3 km/h 81% 0.0 mm
07:09 2.6 °C -0.3 °C 1030.6 hPa Sur 4.8 km/h 8.4 km/h 81.4% 0.0 mm
07:14 2.6 °C -0.2 °C 1030.6 hPa Sur 5.8 km/h 8.4 km/h 82% 0.0 mm
07:19 2.5 °C -0.3 °C 1030.6 hPa SSE 5.7 km/h 8.4 km/h 82% 0.0 mm
07:24 2.5 °C -0.3 °C 1030.7 hPa SSE 5 km/h 9.5 km/h 82% 0.0 mm
07:29 2.6 °C -0.2 °C 1030.7 hPa SSE 5.1 km/h 8.4 km/h 82% 0.0 mm
07:34 2.5 °C -0.3 °C 1030.7 hPa Sur 5.8 km/h 8.4 km/h 82% 0.0 mm
07:39 2.5 °C -0.3 °C 1030.8 hPa Sur 5.8 km/h 8.4 km/h 82% 0.0 mm
07:44 2.5 °C -0.3 °C 1030.8 hPa SSO 5.8 km/h 9.5 km/h 82% 0.0 mm
07:49 2.5 °C -0.3 °C 1030.8 hPa Sur 5.9 km/h 9.3 km/h 82% 0.0 mm
07:54 2.6 °C -0.2 °C 1030.9 hPa Sur 6.4 km/h 9.3 km/h 82% 0.0 mm
07:59 2.6 °C -0.1 °C 1030.9 hPa SSO 6.3 km/h 9.3 km/h 82% 0.0 mm
08:04 2.7 °C -0.2 °C 1030.9 hPa Sur 5.8 km/h 9.3 km/h 81.2% 0.0 mm
08:09 2.7 °C -0.2 °C 1030.9 hPa SSE 5.8 km/h 10 km/h 81% 0.0 mm
08:14 2.7 °C -0.2 °C 1030.9 hPa SSO 5.8 km/h 10 km/h 81.4% 0.0 mm
08:19 2.7 °C -0.1 °C 1030.9 hPa SSO 5.9 km/h 10 km/h 82% 0.0 mm
08:24 2.7 °C -0.1 °C 1030.9 hPa Sur 6.4 km/h 9.5 km/h 82% 0.0 mm
08:29 2.7 °C -0.1 °C 1030.9 hPa SSO 6.3 km/h 8.4 km/h 82% 0.0 mm
08:34 2.7 °C -0.1 °C 1030.9 hPa Sur 5.8 km/h 9.5 km/h 82% 0.0 mm
08:39 2.6 °C -0.2 °C 1031.1 hPa Sur 5.8 km/h 11.1 km/h 82% 0.0 mm
08:44 2.6 °C -0.3 °C 1031.1 hPa Sur 5.8 km/h 9.3 km/h 81.1% 0.0 mm
08:49 2.6 °C -0.3 °C 1031.1 hPa Sur 5.9 km/h 11.1 km/h 81% 0.0 mm
08:54 2.6 °C -0.3 °C 1031.2 hPa Sur 6.4 km/h 9.5 km/h 81% 0.0 mm
08:59 2.7 °C -0.2 °C 1031.2 hPa Sur 6.3 km/h 9.5 km/h 81% 0.0 mm
09:04 2.7 °C -0.3 °C 1031.2 hPa Sur 5.8 km/h 9.3 km/h 80.7% 0.0 mm
09:09 2.8 °C -0.3 °C 1031.4 hPa SSE 5.9 km/h 10 km/h 80% 0.0 mm
09:14 2.8 °C -0.3 °C 1031.4 hPa Sur 6.4 km/h 9.5 km/h 80% 0.0 mm
09:19 2.9 °C -0.3 °C 1031.4 hPa Sur 6.4 km/h 10 km/h 80% 0.0 mm
09:24 2.9 °C -0.3 °C 1031.4 hPa Sur 6.4 km/h 11.9 km/h 79.2% 0.0 mm
09:29 3 °C -0.3 °C 1031.4 hPa Sur 6.6 km/h 11.1 km/h 79% 0.0 mm
09:34 3.2 °C -0.2 °C 1031.4 hPa Sur 7.6 km/h 10 km/h 78.6% 0.0 mm
09:39 3.3 °C -0.2 °C 1031.5 hPa SSO 7.5 km/h 11.1 km/h 77.7% 0.0 mm
09:44 3.3 °C -0.4 °C 1031.5 hPa SSO 6.9 km/h 10 km/h 76.7% 0.0 mm
09:49 3.4 °C -0.4 °C 1031.5 hPa SSO 7 km/h 10 km/h 76% 0.0 mm
09:54 3.5 °C -0.5 °C 1031.6 hPa Sur 7.6 km/h 11.9 km/h 75% 0.0 mm
09:59 3.6 °C -0.4 °C 1031.6 hPa Sur 7.6 km/h 10 km/h 75% 0.0 mm
10:04 3.8 °C -0.3 °C 1031.6 hPa SSO 7.6 km/h 10 km/h 74.5% 0.0 mm
10:09 4 °C -0.2 °C 1031.7 hPa SSO 7.4 km/h 9.5 km/h 74% 0.0 mm
10:14 4.2 °C 0 °C 1031.7 hPa SSO 6.4 km/h 9.3 km/h 73.8% 0.0 mm
10:19 4.5 °C 0 °C 1031.7 hPa SO 6.2 km/h 8.7 km/h 72.7% 0.0 mm
10:24 4.7 °C -0.1 °C 1031.9 hPa OSO 5 km/h 11.1 km/h 71.4% 0.0 mm
10:29 4.8 °C -0.2 °C 1031.9 hPa SO 5.2 km/h 11.1 km/h 70.2% 0.0 mm
10:34 5 °C 0 °C 1031.9 hPa OSO 6.4 km/h 9.3 km/h 70% 0.0 mm
10:39 5.2 °C 0.1 °C 1032.0 hPa SO 6.4 km/h 9.3 km/h 69.6% 0.0 mm
10:44 5.4 °C 0.2 °C 1032.0 hPa SO 5.8 km/h 8.7 km/h 69% 0.0 mm
10:49 5.7 °C 0.2 °C 1032.0 hPa SSO 5.8 km/h 9.5 km/h 68.2% 0.0 mm
10:54 5.7 °C 0.3 °C 1032.1 hPa SSO 5.8 km/h 9.3 km/h 68% 0.0 mm
10:59 6 °C 0.4 °C 1032.1 hPa SSO 5.9 km/h 9.5 km/h 67.4% 0.0 mm
11:04 6.2 °C 0.5 °C 1032.1 hPa Sur 6.4 km/h 10.3 km/h 66.8% 0.0 mm
11:09 6.4 °C 0.5 °C 1032.1 hPa Sur 6.4 km/h 11.1 km/h 65.8% 0.0 mm
11:14 6.7 °C 0.5 °C 1032.1 hPa Sur 6.4 km/h 9.3 km/h 65% 0.0 mm
11:19 6.8 °C 0.5 °C 1032.1 hPa SSO 6.4 km/h 11.1 km/h 64.4% 0.0 mm
11:24 6.9 °C 0.7 °C 1032.1 hPa Sur 6.4 km/h 9.3 km/h 64.4% 0.0 mm
11:29 7.2 °C 0.8 °C 1031.9 hPa Sur 6.3 km/h 10 km/h 64% 0.0 mm
11:34 7.4 °C 1 °C 1031.9 hPa Sur 5.8 km/h 9.5 km/h 64% 0.0 mm
11:39 7.7 °C 1.1 °C 1031.9 hPa Sur 5.8 km/h 9.3 km/h 63.3% 0.0 mm
11:44 7.8 °C 1 °C 1031.9 hPa SSO 5.8 km/h 10 km/h 62.2% 0.0 mm
Murcia-Puente Tocinos, Espa?a
Compliments of Weather Underground - 2.25 mb

La estación de MeteoMurcia.com, publica sus datos en los siguientes proyectos:

Weather Underground PWS IMURCIAP2 Meteoclimatic www.awekas.at

W3Counter
Web Analytics